sensor_id;sensor_type;location;lat;lon;timestamp;P1;durP1;ratioP1;P2;durP2;ratioP2
21036;SDS011;10677;50.942;4.028;2024-01-27T00:01:55;0.10;;;0.10;;
21036;SDS011;10677;50.942;4.028;2024-01-27T00:04:21;0.20;;;0.20;;
21036;SDS011;10677;50.942;4.028;2024-01-27T00:06:47;0.15;;;0.15;;
21036;SDS011;10677;50.942;4.028;2024-01-27T00:09:12;0.20;;;0.20;;
21036;SDS011;10677;50.942;4.028;2024-01-27T00:11:38;0.20;;;0.20;;
21036;SDS011;10677;50.942;4.028;2024-01-27T00:14:04;0.20;;;0.20;;
21036;SDS011;10677;50.942;4.028;2024-01-27T00:16:30;0.20;;;0.20;;
21036;SDS011;10677;50.942;4.028;2024-01-27T00:18:55;0.17;;;0.17;;
21036;SDS011;10677;50.942;4.028;2024-01-27T00:21:21;0.20;;;0.20;;
21036;SDS011;10677;50.942;4.028;2024-01-27T00:26:45;0.20;;;0.20;;
21036;SDS011;10677;50.942;4.028;2024-01-27T00:29:11;0.10;;;0.10;;
21036;SDS011;10677;50.942;4.028;2024-01-27T00:31:37;0.20;;;0.20;;
21036;SDS011;10677;50.942;4.028;2024-01-27T00:34:02;0.10;;;0.10;;
21036;SDS011;10677;50.942;4.028;2024-01-27T00:36:28;0.20;;;0.20;;
21036;SDS011;10677;50.942;4.028;2024-01-27T00:38:54;0.17;;;0.17;;
21036;SDS011;10677;50.942;4.028;2024-01-27T00:41:19;0.20;;;0.20;;
21036;SDS011;10677;50.942;4.028;2024-01-27T00:43:45;0.10;;;0.10;;
21036;SDS011;10677;50.942;4.028;2024-01-27T00:46:11;0.20;;;0.20;;
21036;SDS011;10677;50.942;4.028;2024-01-27T00:48:36;0.20;;;0.20;;
21036;SDS011;10677;50.942;4.028;2024-01-27T00:51:02;0.20;;;0.20;;
21036;SDS011;10677;50.942;4.028;2024-01-27T00:53:28;0.20;;;0.20;;
21036;SDS011;10677;50.942;4.028;2024-01-27T00:55:54;0.20;;;0.20;;
21036;SDS011;10677;50.942;4.028;2024-01-27T00:58:20;0.20;;;0.20;;
21036;SDS011;10677;50.942;4.028;2024-01-27T01:00:45;0.20;;;0.20;;
21036;SDS011;10677;50.942;4.028;2024-01-27T01:03:11;0.20;;;0.20;;
21036;SDS011;10677;50.942;4.028;2024-01-27T01:05:36;0.20;;;0.20;;
21036;SDS011;10677;50.942;4.028;2024-01-27T01:08:02;0.22;;;0.22;;
21036;SDS011;10677;50.942;4.028;2024-01-27T01:10:28;0.20;;;0.20;;
21036;SDS011;10677;50.942;4.028;2024-01-27T01:12:54;0.20;;;0.20;;
21036;SDS011;10677;50.942;4.028;2024-01-27T01:15:20;0.20;;;0.20;;
21036;SDS011;10677;50.942;4.028;2024-01-27T01:17:45;0.20;;;0.20;;
21036;SDS011;10677;50.942;4.028;2024-01-27T01:20:11;0.20;;;0.20;;
21036;SDS011;10677;50.942;4.028;2024-01-27T01:22:37;0.22;;;0.22;;
21036;SDS011;10677;50.942;4.028;2024-01-27T01:25:02;0.20;;;0.20;;
21036;SDS011;10677;50.942;4.028;2024-01-27T01:27:28;0.20;;;0.20;;
21036;SDS011;10677;50.942;4.028;2024-01-27T01:29:54;0.20;;;0.20;;
21036;SDS011;10677;50.942;4.028;2024-01-27T01:32:19;0.20;;;0.20;;
21036;SDS011;10677;50.942;4.028;2024-01-27T01:34:45;0.20;;;0.20;;
21036;SDS011;10677;50.942;4.028;2024-01-27T01:37:13;0.20;;;0.20;;
21036;SDS011;10677;50.942;4.028;2024-01-27T01:39:38;0.20;;;0.20;;
21036;SDS011;10677;50.942;4.028;2024-01-27T01:42:04;0.20;;;0.20;;
21036;SDS011;10677;50.942;4.028;2024-01-27T01:44:30;0.20;;;0.20;;
21036;SDS011;10677;50.942;4.028;2024-01-27T01:46:58;0.20;;;0.20;;
21036;SDS011;10677;50.942;4.028;2024-01-27T01:49:24;0.20;;;0.20;;
21036;SDS011;10677;50.942;4.028;2024-01-27T01:51:51;0.20;;;0.20;;
21036;SDS011;10677;50.942;4.028;2024-01-27T01:54:17;0.20;;;0.20;;
21036;SDS011;10677;50.942;4.028;2024-01-27T01:56:43;0.20;;;0.20;;
21036;SDS011;10677;50.942;4.028;2024-01-27T01:59:10;0.20;;;0.20;;
21036;SDS011;10677;50.942;4.028;2024-01-27T02:01:35;0.20;;;0.20;;
21036;SDS011;10677;50.942;4.028;2024-01-27T02:04:01;0.20;;;0.20;;
21036;SDS011;10677;50.942;4.028;2024-01-27T02:06:29;0.30;;;0.30;;
21036;SDS011;10677;50.942;4.028;2024-01-27T02:08:55;0.20;;;0.20;;
21036;SDS011;10677;50.942;4.028;2024-01-27T02:11:20;0.20;;;0.20;;
21036;SDS011;10677;50.942;4.028;2024-01-27T02:13:46;0.20;;;0.20;;
21036;SDS011;10677;50.942;4.028;2024-01-27T02:16:12;0.20;;;0.20;;
21036;SDS011;10677;50.942;4.028;2024-01-27T02:18:38;0.22;;;0.22;;
21036;SDS011;10677;50.942;4.028;2024-01-27T02:21:04;0.20;;;0.20;;
21036;SDS011;10677;50.942;4.028;2024-01-27T02:23:29;0.20;;;0.20;;
21036;SDS011;10677;50.942;4.028;2024-01-27T02:25:55;0.20;;;0.20;;
21036;SDS011;10677;50.942;4.028;2024-01-27T02:28:21;0.20;;;0.20;;
21036;SDS011;10677;50.942;4.028;2024-01-27T02:30:49;0.20;;;0.20;;
21036;SDS011;10677;50.942;4.028;2024-01-27T02:33:16;0.20;;;0.20;;
21036;SDS011;10677;50.942;4.028;2024-01-27T02:35:42;0.30;;;0.30;;
21036;SDS011;10677;50.942;4.028;2024-01-27T02:38:08;0.13;;;0.13;;
21036;SDS011;10677;50.942;4.028;2024-01-27T02:40:34;0.20;;;0.20;;
21036;SDS011;10677;50.942;4.028;2024-01-27T02:43:00;0.20;;;0.20;;
21036;SDS011;10677;50.942;4.028;2024-01-27T02:45:25;0.20;;;0.20;;
21036;SDS011;10677;50.942;4.028;2024-01-27T02:47:51;0.20;;;0.20;;
21036;SDS011;10677;50.942;4.028;2024-01-27T02:50:16;0.20;;;0.20;;
21036;SDS011;10677;50.942;4.028;2024-01-27T02:52:42;0.20;;;0.20;;
21036;SDS011;10677;50.942;4.028;2024-01-27T02:55:08;0.20;;;0.20;;
21036;SDS011;10677;50.942;4.028;2024-01-27T02:57:34;0.30;;;0.30;;
21036;SDS011;10677;50.942;4.028;2024-01-27T02:59:59;0.20;;;0.20;;
21036;SDS011;10677;50.942;4.028;2024-01-27T03:02:25;0.20;;;0.20;;
21036;SDS011;10677;50.942;4.028;2024-01-27T03:04:50;0.20;;;0.20;;
21036;SDS011;10677;50.942;4.028;2024-01-27T03:07:16;0.20;;;0.20;;
21036;SDS011;10677;50.942;4.028;2024-01-27T03:09:42;0.20;;;0.20;;
21036;SDS011;10677;50.942;4.028;2024-01-27T03:12:08;0.20;;;0.20;;
21036;SDS011;10677;50.942;4.028;2024-01-27T03:14:33;0.20;;;0.20;;
21036;SDS011;10677;50.942;4.028;2024-01-27T03:16:59;0.20;;;0.20;;
21036;SDS011;10677;50.942;4.028;2024-01-27T03:19:25;0.20;;;0.20;;
21036;SDS011;10677;50.942;4.028;2024-01-27T03:21:50;0.20;;;0.20;;
21036;SDS011;10677;50.942;4.028;2024-01-27T03:24:16;0.20;;;0.20;;
21036;SDS011;10677;50.942;4.028;2024-01-27T03:26:42;0.20;;;0.20;;
21036;SDS011;10677;50.942;4.028;2024-01-27T03:29:07;0.20;;;0.20;;
21036;SDS011;10677;50.942;4.028;2024-01-27T03:31:33;0.20;;;0.20;;
21036;SDS011;10677;50.942;4.028;2024-01-27T03:33:59;0.20;;;0.20;;
21036;SDS011;10677;50.942;4.028;2024-01-27T03:36:26;0.20;;;0.20;;
21036;SDS011;10677;50.942;4.028;2024-01-27T03:38:52;0.20;;;0.20;;
21036;SDS011;10677;50.942;4.028;2024-01-27T03:41:18;0.20;;;0.20;;
21036;SDS011;10677;50.942;4.028;2024-01-27T03:43:44;0.17;;;0.17;;
21036;SDS011;10677;50.942;4.028;2024-01-27T03:46:10;0.20;;;0.20;;
21036;SDS011;10677;50.942;4.028;2024-01-27T03:48:35;0.20;;;0.20;;
21036;SDS011;10677;50.942;4.028;2024-01-27T03:51:01;0.20;;;0.20;;
21036;SDS011;10677;50.942;4.028;2024-01-27T03:53:27;0.20;;;0.20;;
21036;SDS011;10677;50.942;4.028;2024-01-27T03:55:53;0.20;;;0.20;;
21036;SDS011;10677;50.942;4.028;2024-01-27T03:58:19;0.20;;;0.20;;
21036;SDS011;10677;50.942;4.028;2024-01-27T04:00:45;0.20;;;0.20;;
21036;SDS011;10677;50.942;4.028;2024-01-27T04:03:11;0.20;;;0.20;;
21036;SDS011;10677;50.942;4.028;2024-01-27T04:05:36;0.20;;;0.20;;
21036;SDS011;10677;50.942;4.028;2024-01-27T04:08:03;0.20;;;0.20;;
21036;SDS011;10677;50.942;4.028;2024-01-27T04:10:31;0.20;;;0.20;;
21036;SDS011;10677;50.942;4.028;2024-01-27T04:12:57;0.20;;;0.20;;
21036;SDS011;10677;50.942;4.028;2024-01-27T04:15:23;0.20;;;0.20;;
21036;SDS011;10677;50.942;4.028;2024-01-27T04:17:48;0.20;;;0.20;;
21036;SDS011;10677;50.942;4.028;2024-01-27T04:20:14;0.20;;;0.20;;
21036;SDS011;10677;50.942;4.028;2024-01-27T04:22:40;0.20;;;0.20;;
21036;SDS011;10677;50.942;4.028;2024-01-27T04:25:05;0.20;;;0.20;;
21036;SDS011;10677;50.942;4.028;2024-01-27T04:27:36;0.22;;;0.22;;
21036;SDS011;10677;50.942;4.028;2024-01-27T04:30:06;0.20;;;0.20;;
21036;SDS011;10677;50.942;4.028;2024-01-27T04:32:32;0.20;;;0.20;;
21036;SDS011;10677;50.942;4.028;2024-01-27T04:34:58;0.20;;;0.20;;
21036;SDS011;10677;50.942;4.028;2024-01-27T04:37:23;0.30;;;0.30;;
21036;SDS011;10677;50.942;4.028;2024-01-27T04:39:49;0.20;;;0.20;;
21036;SDS011;10677;50.942;4.028;2024-01-27T04:42:15;0.20;;;0.20;;
21036;SDS011;10677;50.942;4.028;2024-01-27T04:44:41;0.10;;;0.10;;
21036;SDS011;10677;50.942;4.028;2024-01-27T04:47:07;0.20;;;0.20;;
21036;SDS011;10677;50.942;4.028;2024-01-27T04:49:33;0.20;;;0.20;;
21036;SDS011;10677;50.942;4.028;2024-01-27T04:51:59;0.20;;;0.20;;
21036;SDS011;10677;50.942;4.028;2024-01-27T04:54:25;0.20;;;0.20;;
21036;SDS011;10677;50.942;4.028;2024-01-27T04:56:50;0.20;;;0.20;;
21036;SDS011;10677;50.942;4.028;2024-01-27T04:59:16;0.17;;;0.17;;
21036;SDS011;10677;50.942;4.028;2024-01-27T05:01:45;0.20;;;0.20;;
21036;SDS011;10677;50.942;4.028;2024-01-27T05:04:11;0.20;;;0.20;;
21036;SDS011;10677;50.942;4.028;2024-01-27T05:06:37;0.20;;;0.20;;
21036;SDS011;10677;50.942;4.028;2024-01-27T05:09:04;0.15;;;0.15;;
21036;SDS011;10677;50.942;4.028;2024-01-27T05:11:31;0.20;;;0.20;;
21036;SDS011;10677;50.942;4.028;2024-01-27T05:13:59;0.30;;;0.30;;
21036;SDS011;10677;50.942;4.028;2024-01-27T05:16:25;0.20;;;0.20;;
21036;SDS011;10677;50.942;4.028;2024-01-27T05:18:52;0.20;;;0.20;;
21036;SDS011;10677;50.942;4.028;2024-01-27T05:21:18;0.20;;;0.20;;
21036;SDS011;10677;50.942;4.028;2024-01-27T05:23:44;0.20;;;0.20;;
21036;SDS011;10677;50.942;4.028;2024-01-27T05:26:10;0.20;;;0.20;;
21036;SDS011;10677;50.942;4.028;2024-01-27T05:28:39;0.20;;;0.20;;
21036;SDS011;10677;50.942;4.028;2024-01-27T05:31:08;0.20;;;0.20;;
21036;SDS011;10677;50.942;4.028;2024-01-27T05:33:34;0.30;;;0.30;;
21036;SDS011;10677;50.942;4.028;2024-01-27T05:36:00;0.20;;;0.20;;
21036;SDS011;10677;50.942;4.028;2024-01-27T05:38:26;0.20;;;0.20;;
21036;SDS011;10677;50.942;4.028;2024-01-27T05:40:53;0.20;;;0.20;;
21036;SDS011;10677;50.942;4.028;2024-01-27T05:43:19;0.20;;;0.20;;
21036;SDS011;10677;50.942;4.028;2024-01-27T05:45:45;0.20;;;0.20;;
21036;SDS011;10677;50.942;4.028;2024-01-27T05:48:12;0.20;;;0.20;;
21036;SDS011;10677;50.942;4.028;2024-01-27T05:50:39;0.20;;;0.20;;
21036;SDS011;10677;50.942;4.028;2024-01-27T05:53:07;0.20;;;0.20;;
21036;SDS011;10677;50.942;4.028;2024-01-27T05:55:32;0.20;;;0.20;;
21036;SDS011;10677;50.942;4.028;2024-01-27T05:57:59;0.20;;;0.20;;
21036;SDS011;10677;50.942;4.028;2024-01-27T06:00:24;0.20;;;0.20;;
21036;SDS011;10677;50.942;4.028;2024-01-27T06:02:50;0.20;;;0.20;;
21036;SDS011;10677;50.942;4.028;2024-01-27T06:05:15;0.20;;;0.20;;
21036;SDS011;10677;50.942;4.028;2024-01-27T06:07:41;0.20;;;0.20;;
21036;SDS011;10677;50.942;4.028;2024-01-27T06:10:10;0.20;;;0.20;;
21036;SDS011;10677;50.942;4.028;2024-01-27T06:12:37;0.20;;;0.20;;
21036;SDS011;10677;50.942;4.028;2024-01-27T06:15:04;0.20;;;0.20;;
21036;SDS011;10677;50.942;4.028;2024-01-27T06:17:31;0.20;;;0.20;;
21036;SDS011;10677;50.942;4.028;2024-01-27T06:19:56;0.20;;;0.20;;
21036;SDS011;10677;50.942;4.028;2024-01-27T06:22:22;0.20;;;0.20;;
21036;SDS011;10677;50.942;4.028;2024-01-27T06:24:48;0.20;;;0.20;;
21036;SDS011;10677;50.942;4.028;2024-01-27T06:27:13;0.20;;;0.20;;
21036;SDS011;10677;50.942;4.028;2024-01-27T06:29:39;0.20;;;0.20;;
21036;SDS011;10677;50.942;4.028;2024-01-27T06:32:06;0.20;;;0.20;;
21036;SDS011;10677;50.942;4.028;2024-01-27T06:34:32;0.20;;;0.20;;
21036;SDS011;10677;50.942;4.028;2024-01-27T06:36:58;0.20;;;0.20;;
21036;SDS011;10677;50.942;4.028;2024-01-27T06:39:25;0.20;;;0.20;;
21036;SDS011;10677;50.942;4.028;2024-01-27T06:41:51;0.20;;;0.20;;
21036;SDS011;10677;50.942;4.028;2024-01-27T06:44:17;0.20;;;0.20;;
21036;SDS011;10677;50.942;4.028;2024-01-27T06:46:42;0.28;;;0.28;;
21036;SDS011;10677;50.942;4.028;2024-01-27T06:49:11;0.20;;;0.20;;
21036;SDS011;10677;50.942;4.028;2024-01-27T06:51:38;0.20;;;0.20;;
21036;SDS011;10677;50.942;4.028;2024-01-27T06:54:04;0.20;;;0.20;;
21036;SDS011;10677;50.942;4.028;2024-01-27T06:56:30;0.20;;;0.20;;
21036;SDS011;10677;50.942;4.028;2024-01-27T06:58:56;0.20;;;0.20;;
21036;SDS011;10677;50.942;4.028;2024-01-27T07:01:21;0.20;;;0.20;;
21036;SDS011;10677;50.942;4.028;2024-01-27T07:03:47;0.20;;;0.20;;
21036;SDS011;10677;50.942;4.028;2024-01-27T07:06:12;0.20;;;0.20;;
21036;SDS011;10677;50.942;4.028;2024-01-27T07:08:38;0.20;;;0.20;;
21036;SDS011;10677;50.942;4.028;2024-01-27T07:11:04;0.20;;;0.20;;
21036;SDS011;10677;50.942;4.028;2024-01-27T07:13:29;0.20;;;0.20;;
21036;SDS011;10677;50.942;4.028;2024-01-27T07:15:58;0.20;;;0.20;;
21036;SDS011;10677;50.942;4.028;2024-01-27T07:18:24;0.20;;;0.20;;
21036;SDS011;10677;50.942;4.028;2024-01-27T07:20:50;0.20;;;0.20;;
21036;SDS011;10677;50.942;4.028;2024-01-27T07:23:16;0.20;;;0.20;;
21036;SDS011;10677;50.942;4.028;2024-01-27T07:25:43;0.20;;;0.20;;
21036;SDS011;10677;50.942;4.028;2024-01-27T07:28:09;0.20;;;0.20;;
21036;SDS011;10677;50.942;4.028;2024-01-27T07:30:35;0.20;;;0.20;;
21036;SDS011;10677;50.942;4.028;2024-01-27T07:33:01;0.20;;;0.20;;
21036;SDS011;10677;50.942;4.028;2024-01-27T07:35:27;0.30;;;0.30;;
21036;SDS011;10677;50.942;4.028;2024-01-27T07:37:53;0.20;;;0.20;;
21036;SDS011;10677;50.942;4.028;2024-01-27T07:40:19;0.20;;;0.20;;
21036;SDS011;10677;50.942;4.028;2024-01-27T07:42:45;0.20;;;0.20;;
21036;SDS011;10677;50.942;4.028;2024-01-27T07:45:10;0.10;;;0.10;;
21036;SDS011;10677;50.942;4.028;2024-01-27T07:47:36;0.20;;;0.20;;
21036;SDS011;10677;50.942;4.028;2024-01-27T07:50:02;0.20;;;0.20;;
21036;SDS011;10677;50.942;4.028;2024-01-27T07:52:28;0.20;;;0.20;;
21036;SDS011;10677;50.942;4.028;2024-01-27T07:54:53;0.20;;;0.20;;
21036;SDS011;10677;50.942;4.028;2024-01-27T07:57:19;0.20;;;0.20;;
21036;SDS011;10677;50.942;4.028;2024-01-27T07:59:46;0.20;;;0.20;;
21036;SDS011;10677;50.942;4.028;2024-01-27T08:02:11;0.20;;;0.20;;
21036;SDS011;10677;50.942;4.028;2024-01-27T08:04:38;0.20;;;0.20;;
21036;SDS011;10677;50.942;4.028;2024-01-27T08:07:03;0.20;;;0.20;;
21036;SDS011;10677;50.942;4.028;2024-01-27T08:09:34;0.20;;;0.20;;
21036;SDS011;10677;50.942;4.028;2024-01-27T08:12:01;0.20;;;0.20;;
21036;SDS011;10677;50.942;4.028;2024-01-27T08:14:27;0.20;;;0.20;;
21036;SDS011;10677;50.942;4.028;2024-01-27T08:16:55;0.20;;;0.20;;
21036;SDS011;10677;50.942;4.028;2024-01-27T08:19:21;0.20;;;0.20;;
21036;SDS011;10677;50.942;4.028;2024-01-27T08:21:47;0.20;;;0.20;;
21036;SDS011;10677;50.942;4.028;2024-01-27T08:24:13;0.20;;;0.20;;
21036;SDS011;10677;50.942;4.028;2024-01-27T08:26:39;0.20;;;0.20;;
21036;SDS011;10677;50.942;4.028;2024-01-27T08:29:07;0.20;;;0.20;;
21036;SDS011;10677;50.942;4.028;2024-01-27T08:31:35;0.20;;;0.20;;
21036;SDS011;10677;50.942;4.028;2024-01-27T08:34:04;0.20;;;0.20;;
21036;SDS011;10677;50.942;4.028;2024-01-27T08:36:30;0.20;;;0.20;;
21036;SDS011;10677;50.942;4.028;2024-01-27T08:38:57;0.20;;;0.20;;
21036;SDS011;10677;50.942;4.028;2024-01-27T08:41:23;0.20;;;0.20;;
21036;SDS011;10677;50.942;4.028;2024-01-27T08:43:49;0.20;;;0.20;;
21036;SDS011;10677;50.942;4.028;2024-01-27T08:46:14;0.20;;;0.20;;
21036;SDS011;10677;50.942;4.028;2024-01-27T08:48:46;0.20;;;0.20;;
21036;SDS011;10677;50.942;4.028;2024-01-27T08:51:11;0.20;;;0.20;;
21036;SDS011;10677;50.942;4.028;2024-01-27T08:53:37;0.20;;;0.20;;
21036;SDS011;10677;50.942;4.028;2024-01-27T08:56:03;0.10;;;0.10;;
21036;SDS011;10677;50.942;4.028;2024-01-27T08:58:30;0.20;;;0.20;;
21036;SDS011;10677;50.942;4.028;2024-01-27T09:00:56;0.20;;;0.20;;
21036;SDS011;10677;50.942;4.028;2024-01-27T09:03:22;0.20;;;0.20;;
21036;SDS011;10677;50.942;4.028;2024-01-27T09:05:47;0.20;;;0.20;;
21036;SDS011;10677;50.942;4.028;2024-01-27T09:08:13;0.20;;;0.20;;
21036;SDS011;10677;50.942;4.028;2024-01-27T09:10:40;0.20;;;0.20;;
21036;SDS011;10677;50.942;4.028;2024-01-27T09:13:05;0.20;;;0.20;;
21036;SDS011;10677;50.942;4.028;2024-01-27T09:15:31;0.20;;;0.20;;
21036;SDS011;10677;50.942;4.028;2024-01-27T09:17:56;0.15;;;0.15;;
21036;SDS011;10677;50.942;4.028;2024-01-27T09:20:24;0.17;;;0.17;;
21036;SDS011;10677;50.942;4.028;2024-01-27T09:22:49;0.20;;;0.20;;
21036;SDS011;10677;50.942;4.028;2024-01-27T09:25:15;0.20;;;0.20;;
21036;SDS011;10677;50.942;4.028;2024-01-27T09:27:41;0.15;;;0.15;;
21036;SDS011;10677;50.942;4.028;2024-01-27T09:30:07;0.10;;;0.10;;
21036;SDS011;10677;50.942;4.028;2024-01-27T09:32:33;0.20;;;0.20;;
21036;SDS011;10677;50.942;4.028;2024-01-27T09:34:59;0.20;;;0.20;;
21036;SDS011;10677;50.942;4.028;2024-01-27T09:37:25;0.17;;;0.17;;
21036;SDS011;10677;50.942;4.028;2024-01-27T09:39:50;0.10;;;0.10;;
21036;SDS011;10677;50.942;4.028;2024-01-27T09:42:16;0.10;;;0.10;;
21036;SDS011;10677;50.942;4.028;2024-01-27T09:44:47;0.20;;;0.20;;
21036;SDS011;10677;50.942;4.028;2024-01-27T09:47:14;0.20;;;0.20;;
21036;SDS011;10677;50.942;4.028;2024-01-27T09:49:41;0.20;;;0.20;;
21036;SDS011;10677;50.942;4.028;2024-01-27T09:52:08;0.20;;;0.20;;
21036;SDS011;10677;50.942;4.028;2024-01-27T09:54:34;0.20;;;0.20;;
21036;SDS011;10677;50.942;4.028;2024-01-27T09:57:01;0.10;;;0.10;;
21036;SDS011;10677;50.942;4.028;2024-01-27T09:59:27;0.20;;;0.20;;
21036;SDS011;10677;50.942;4.028;2024-01-27T10:01:53;0.10;;;0.10;;
21036;SDS011;10677;50.942;4.028;2024-01-27T10:04:22;0.10;;;0.10;;
21036;SDS011;10677;50.942;4.028;2024-01-27T10:06:48;0.10;;;0.10;;
21036;SDS011;10677;50.942;4.028;2024-01-27T10:09:16;0.10;;;0.10;;
21036;SDS011;10677;50.942;4.028;2024-01-27T10:11:45;0.10;;;0.10;;
21036;SDS011;10677;50.942;4.028;2024-01-27T10:14:12;0.10;;;0.10;;
21036;SDS011;10677;50.942;4.028;2024-01-27T10:16:41;0.10;;;0.10;;
21036;SDS011;10677;50.942;4.028;2024-01-27T10:19:08;0.10;;;0.10;;
21036;SDS011;10677;50.942;4.028;2024-01-27T10:21:39;0.10;;;0.10;;
21036;SDS011;10677;50.942;4.028;2024-01-27T10:24:04;0.10;;;0.10;;
21036;SDS011;10677;50.942;4.028;2024-01-27T10:26:31;0.10;;;0.10;;
21036;SDS011;10677;50.942;4.028;2024-01-27T10:28:58;0.10;;;0.10;;
21036;SDS011;10677;50.942;4.028;2024-01-27T10:31:27;0.10;;;0.10;;
21036;SDS011;10677;50.942;4.028;2024-01-27T10:33:56;0.10;;;0.10;;
21036;SDS011;10677;50.942;4.028;2024-01-27T10:36:23;0.20;;;0.20;;
21036;SDS011;10677;50.942;4.028;2024-01-27T10:38:49;0.20;;;0.20;;
21036;SDS011;10677;50.942;4.028;2024-01-27T10:41:24;0.10;;;0.10;;
21036;SDS011;10677;50.942;4.028;2024-01-27T10:43:51;0.10;;;0.10;;
21036;SDS011;10677;50.942;4.028;2024-01-27T10:46:18;0.10;;;0.10;;
21036;SDS011;10677;50.942;4.028;2024-01-27T10:48:49;0.20;;;0.20;;
21036;SDS011;10677;50.942;4.028;2024-01-27T10:51:18;0.20;;;0.20;;
21036;SDS011;10677;50.942;4.028;2024-01-27T10:53:53;0.10;;;0.10;;
21036;SDS011;10677;50.942;4.028;2024-01-27T10:56:24;0.10;;;0.10;;
21036;SDS011;10677;50.942;4.028;2024-01-27T10:58:52;0.10;;;0.10;;
21036;SDS011;10677;50.942;4.028;2024-01-27T11:01:18;0.10;;;0.10;;
21036;SDS011;10677;50.942;4.028;2024-01-27T11:03:47;0.10;;;0.10;;
21036;SDS011;10677;50.942;4.028;2024-01-27T11:06:15;0.10;;;0.10;;
21036;SDS011;10677;50.942;4.028;2024-01-27T11:08:42;0.10;;;0.10;;
21036;SDS011;10677;50.942;4.028;2024-01-27T11:11:09;0.10;;;0.10;;
21036;SDS011;10677;50.942;4.028;2024-01-27T11:13:35;0.10;;;0.10;;
21036;SDS011;10677;50.942;4.028;2024-01-27T11:16:01;0.10;;;0.10;;
21036;SDS011;10677;50.942;4.028;2024-01-27T11:18:27;0.10;;;0.10;;
21036;SDS011;10677;50.942;4.028;2024-01-27T11:20:55;0.10;;;0.10;;
21036;SDS011;10677;50.942;4.028;2024-01-27T11:23:30;0.10;;;0.10;;
21036;SDS011;10677;50.942;4.028;2024-01-27T11:26:04;0.10;;;0.10;;
21036;SDS011;10677;50.942;4.028;2024-01-27T11:28:30;0.10;;;0.10;;
21036;SDS011;10677;50.942;4.028;2024-01-27T11:30:56;0.10;;;0.10;;
21036;SDS011;10677;50.942;4.028;2024-01-27T11:33:24;0.10;;;0.10;;
21036;SDS011;10677;50.942;4.028;2024-01-27T11:36:00;0.10;;;0.10;;
21036;SDS011;10677;50.942;4.028;2024-01-27T11:38:32;0.10;;;0.10;;
21036;SDS011;10677;50.942;4.028;2024-01-27T11:41:01;0.10;;;0.10;;
21036;SDS011;10677;50.942;4.028;2024-01-27T11:43:28;0.10;;;0.10;;
21036;SDS011;10677;50.942;4.028;2024-01-27T11:46:00;0.10;;;0.10;;
21036;SDS011;10677;50.942;4.028;2024-01-27T11:48:26;0.10;;;0.10;;
21036;SDS011;10677;50.942;4.028;2024-01-27T11:53:33;0.10;;;0.10;;
21036;SDS011;10677;50.942;4.028;2024-01-27T11:55:59;0.10;;;0.10;;
21036;SDS011;10677;50.942;4.028;2024-01-27T11:58:26;0.10;;;0.10;;
21036;SDS011;10677;50.942;4.028;2024-01-27T12:00:52;0.10;;;0.10;;
21036;SDS011;10677;50.942;4.028;2024-01-27T12:03:18;0.10;;;0.10;;
21036;SDS011;10677;50.942;4.028;2024-01-27T12:05:44;0.10;;;0.10;;
21036;SDS011;10677;50.942;4.028;2024-01-27T12:08:10;0.10;;;0.10;;
21036;SDS011;10677;50.942;4.028;2024-01-27T12:10:36;0.10;;;0.10;;
21036;SDS011;10677;50.942;4.028;2024-01-27T12:13:02;0.10;;;0.10;;
21036;SDS011;10677;50.942;4.028;2024-01-27T12:15:28;0.10;;;0.10;;
21036;SDS011;10677;50.942;4.028;2024-01-27T12:17:54;0.10;;;0.10;;
21036;SDS011;10677;50.942;4.028;2024-01-27T12:20:21;0.10;;;0.10;;
21036;SDS011;10677;50.942;4.028;2024-01-27T12:22:47;0.10;;;0.10;;
21036;SDS011;10677;50.942;4.028;2024-01-27T12:25:16;0.10;;;0.10;;
21036;SDS011;10677;50.942;4.028;2024-01-27T12:27:42;0.10;;;0.10;;
21036;SDS011;10677;50.942;4.028;2024-01-27T12:30:09;0.00;;;0.00;;
21036;SDS011;10677;50.942;4.028;2024-01-27T12:32:35;0.10;;;0.10;;
21036;SDS011;10677;50.942;4.028;2024-01-27T12:35:06;0.10;;;0.10;;
21036;SDS011;10677;50.942;4.028;2024-01-27T12:37:33;0.05;;;0.05;;
21036;SDS011;10677;50.942;4.028;2024-01-27T12:39:59;0.10;;;0.10;;
21036;SDS011;10677;50.942;4.028;2024-01-27T12:42:25;0.00;;;0.00;;
21036;SDS011;10677;50.942;4.028;2024-01-27T12:44:51;0.10;;;0.10;;
21036;SDS011;10677;50.942;4.028;2024-01-27T12:47:16;0.10;;;0.10;;
21036;SDS011;10677;50.942;4.028;2024-01-27T12:49:44;0.10;;;0.10;;
21036;SDS011;10677;50.942;4.028;2024-01-27T12:52:10;0.10;;;0.10;;
21036;SDS011;10677;50.942;4.028;2024-01-27T12:54:36;0.10;;;0.10;;
21036;SDS011;10677;50.942;4.028;2024-01-27T12:57:02;0.10;;;0.10;;
21036;SDS011;10677;50.942;4.028;2024-01-27T12:59:31;0.10;;;0.10;;
21036;SDS011;10677;50.942;4.028;2024-01-27T13:01:57;0.10;;;0.10;;
21036;SDS011;10677;50.942;4.028;2024-01-27T13:04:22;0.10;;;0.10;;
21036;SDS011;10677;50.942;4.028;2024-01-27T13:06:48;0.10;;;0.10;;
21036;SDS011;10677;50.942;4.028;2024-01-27T13:09:13;0.10;;;0.10;;
21036;SDS011;10677;50.942;4.028;2024-01-27T13:11:39;0.10;;;0.10;;
21036;SDS011;10677;50.942;4.028;2024-01-27T13:14:05;0.10;;;0.10;;
21036;SDS011;10677;50.942;4.028;2024-01-27T13:16:31;0.10;;;0.10;;
21036;SDS011;10677;50.942;4.028;2024-01-27T13:18:57;0.10;;;0.10;;
21036;SDS011;10677;50.942;4.028;2024-01-27T13:21:23;0.10;;;0.10;;
21036;SDS011;10677;50.942;4.028;2024-01-27T13:23:48;0.10;;;0.10;;
21036;SDS011;10677;50.942;4.028;2024-01-27T13:26:17;0.10;;;0.10;;
21036;SDS011;10677;50.942;4.028;2024-01-27T13:28:42;0.10;;;0.10;;
21036;SDS011;10677;50.942;4.028;2024-01-27T13:31:08;0.00;;;0.00;;
21036;SDS011;10677;50.942;4.028;2024-01-27T13:33:34;0.10;;;0.10;;
21036;SDS011;10677;50.942;4.028;2024-01-27T13:36:00;0.10;;;0.10;;
21036;SDS011;10677;50.942;4.028;2024-01-27T13:38:26;0.10;;;0.10;;
21036;SDS011;10677;50.942;4.028;2024-01-27T13:40:52;0.10;;;0.10;;
21036;SDS011;10677;50.942;4.028;2024-01-27T13:43:18;0.10;;;0.10;;
21036;SDS011;10677;50.942;4.028;2024-01-27T13:45:44;0.10;;;0.10;;
21036;SDS011;10677;50.942;4.028;2024-01-27T13:48:12;0.10;;;0.10;;
21036;SDS011;10677;50.942;4.028;2024-01-27T13:50:37;0.10;;;0.10;;
21036;SDS011;10677;50.942;4.028;2024-01-27T13:53:06;0.10;;;0.10;;
21036;SDS011;10677;50.942;4.028;2024-01-27T13:55:32;0.10;;;0.10;;
21036;SDS011;10677;50.942;4.028;2024-01-27T13:57:58;0.00;;;0.00;;
21036;SDS011;10677;50.942;4.028;2024-01-27T14:00:23;0.10;;;0.10;;
21036;SDS011;10677;50.942;4.028;2024-01-27T14:02:49;0.10;;;0.10;;
21036;SDS011;10677;50.942;4.028;2024-01-27T14:05:14;0.10;;;0.10;;
21036;SDS011;10677;50.942;4.028;2024-01-27T14:07:41;0.10;;;0.10;;
21036;SDS011;10677;50.942;4.028;2024-01-27T14:10:07;0.10;;;0.10;;
21036;SDS011;10677;50.942;4.028;2024-01-27T14:12:33;0.10;;;0.10;;
21036;SDS011;10677;50.942;4.028;2024-01-27T14:15:03;0.10;;;0.10;;
21036;SDS011;10677;50.942;4.028;2024-01-27T14:17:34;0.10;;;0.10;;
21036;SDS011;10677;50.942;4.028;2024-01-27T14:20:01;0.10;;;0.10;;
21036;SDS011;10677;50.942;4.028;2024-01-27T14:22:27;0.10;;;0.10;;
21036;SDS011;10677;50.942;4.028;2024-01-27T14:24:53;0.10;;;0.10;;
21036;SDS011;10677;50.942;4.028;2024-01-27T14:27:18;0.10;;;0.10;;
21036;SDS011;10677;50.942;4.028;2024-01-27T14:29:50;0.10;;;0.10;;
21036;SDS011;10677;50.942;4.028;2024-01-27T14:32:20;0.10;;;0.10;;
21036;SDS011;10677;50.942;4.028;2024-01-27T14:34:46;0.10;;;0.10;;
21036;SDS011;10677;50.942;4.028;2024-01-27T14:37:12;0.10;;;0.10;;
21036;SDS011;10677;50.942;4.028;2024-01-27T14:39:38;0.10;;;0.10;;
21036;SDS011;10677;50.942;4.028;2024-01-27T14:42:09;0.10;;;0.10;;
21036;SDS011;10677;50.942;4.028;2024-01-27T14:44:35;0.10;;;0.10;;
21036;SDS011;10677;50.942;4.028;2024-01-27T14:47:01;0.10;;;0.10;;
21036;SDS011;10677;50.942;4.028;2024-01-27T14:49:26;0.10;;;0.10;;